sensor_id;sensor_type;location;lat;lon;timestamp;pressure;altitude;pressure_sealevel;temperature;humidity
64886;BME280;51514;52.206;5.114;2023-02-10T00:01:39;103611.59;;;2.89;82.23
64886;BME280;51514;52.206;5.114;2023-02-10T00:04:05;103612.38;;;2.92;82.51
64886;BME280;51514;52.206;5.114;2023-02-10T00:06:31;103620.25;;;2.97;83.19
64886;BME280;51514;52.206;5.114;2023-02-10T00:08:59;103610.47;;;2.98;82.92
64886;BME280;51514;52.206;5.114;2023-02-10T00:11:25;103606.97;;;2.96;84.13
64886;BME280;51514;52.206;5.114;2023-02-10T00:14:11;103598.84;;;3.00;83.94
64886;BME280;51514;52.206;5.114;2023-02-10T00:16:36;103602.25;;;3.05;84.36
64886;BME280;51514;52.206;5.114;2023-02-10T00:19:02;103607.47;;;3.10;84.49
64886;BME280;51514;52.206;5.114;2023-02-10T00:21:27;103602.88;;;3.15;84.79
64886;BME280;51514;52.206;5.114;2023-02-10T00:23:53;103609.00;;;3.18;84.89
64886;BME280;51514;52.206;5.114;2023-02-10T00:26:18;103608.03;;;3.21;84.57
64886;BME280;51514;52.206;5.114;2023-02-10T00:28:44;103609.88;;;3.19;84.86
64886;BME280;51514;52.206;5.114;2023-02-10T00:31:11;103600.00;;;3.22;85.32
64886;BME280;51514;52.206;5.114;2023-02-10T00:33:38;103608.84;;;3.24;85.20
64886;BME280;51514;52.206;5.114;2023-02-10T00:36:08;103606.06;;;3.27;84.71
64886;BME280;51514;52.206;5.114;2023-02-10T00:38:34;103606.81;;;3.33;84.96
64886;BME280;51514;52.206;5.114;2023-02-10T00:41:08;103610.31;;;3.35;85.66
64886;BME280;51514;52.206;5.114;2023-02-10T00:43:33;103607.53;;;3.38;84.93
64886;BME280;51514;52.206;5.114;2023-02-10T00:45:59;103612.78;;;3.41;84.39
64886;BME280;51514;52.206;5.114;2023-02-10T00:48:24;103606.53;;;3.42;84.51
64886;BME280;51514;52.206;5.114;2023-02-10T00:50:50;103607.47;;;3.41;83.65
64886;BME280;51514;52.206;5.114;2023-02-10T00:53:15;103609.56;;;3.29;82.42
64886;BME280;51514;52.206;5.114;2023-02-10T00:55:40;103599.13;;;3.22;82.17
64886;BME280;51514;52.206;5.114;2023-02-10T00:58:06;103594.88;;;3.15;81.75
64886;BME280;51514;52.206;5.114;2023-02-10T01:00:31;103604.84;;;3.08;80.66
64886;BME280;51514;52.206;5.114;2023-02-10T01:02:57;103612.94;;;3.04;80.73
64886;BME280;51514;52.206;5.114;2023-02-10T01:05:22;103613.09;;;2.99;81.39
64886;BME280;51514;52.206;5.114;2023-02-10T01:07:47;103618.50;;;2.96;81.18
64886;BME280;51514;52.206;5.114;2023-02-10T01:10:13;103614.97;;;2.96;80.94
64886;BME280;51514;52.206;5.114;2023-02-10T01:12:38;103618.50;;;2.96;81.31
64886;BME280;51514;52.206;5.114;2023-02-10T01:15:03;103614.09;;;2.95;81.38
64886;BME280;51514;52.206;5.114;2023-02-10T01:17:29;103630.97;;;2.94;81.31
64886;BME280;51514;52.206;5.114;2023-02-10T01:19:54;103632.75;;;2.95;80.90
64886;BME280;51514;52.206;5.114;2023-02-10T01:22:21;103632.69;;;2.97;81.19
64886;BME280;51514;52.206;5.114;2023-02-10T01:24:46;103638.91;;;2.97;81.51
64886;BME280;51514;52.206;5.114;2023-02-10T01:27:11;103637.13;;;2.98;80.84
64886;BME280;51514;52.206;5.114;2023-02-10T01:29:37;103637.16;;;2.96;81.86
64886;BME280;51514;52.206;5.114;2023-02-10T01:32:02;103631.81;;;2.96;82.60
64886;BME280;51514;52.206;5.114;2023-02-10T01:34:27;103632.75;;;2.95;82.76
64886;BME280;51514;52.206;5.114;2023-02-10T01:36:53;103638.84;;;3.00;83.61
64886;BME280;51514;52.206;5.114;2023-02-10T01:39:18;103637.00;;;3.02;82.68
64886;BME280;51514;52.206;5.114;2023-02-10T01:41:43;103644.94;;;3.04;81.32
64886;BME280;51514;52.206;5.114;2023-02-10T01:46:47;103642.25;;;3.04;81.97
64886;BME280;51514;52.206;5.114;2023-02-10T01:49:15;103638.84;;;3.00;81.20
64886;BME280;51514;52.206;5.114;2023-02-10T01:54:22;103639.16;;;2.88;80.31
64886;BME280;51514;52.206;5.114;2023-02-10T01:56:50;103645.56;;;2.81;80.30
64886;BME280;51514;52.206;5.114;2023-02-10T01:59:17;103637.75;;;2.73;80.06
64886;BME280;51514;52.206;5.114;2023-02-10T02:01:45;103637.94;;;2.67;80.21
64886;BME280;51514;52.206;5.114;2023-02-10T02:04:10;103633.63;;;2.62;79.84
64886;BME280;51514;52.206;5.114;2023-02-10T02:06:36;103632.88;;;2.56;80.46
64886;BME280;51514;52.206;5.114;2023-02-10T02:09:01;103631.13;;;2.55;80.33
64886;BME280;51514;52.206;5.114;2023-02-10T02:14:30;103636.59;;;2.49;80.39
64886;BME280;51514;52.206;5.114;2023-02-10T02:20:09;103642.97;;;2.44;80.43
64886;BME280;51514;52.206;5.114;2023-02-10T02:28:38;103637.22;;;2.25;79.39
64886;BME280;51514;52.206;5.114;2023-02-10T02:34:01;103648.09;;;2.16;79.16
64886;BME280;51514;52.206;5.114;2023-02-10T02:36:32;103661.50;;;2.10;79.32
64886;BME280;51514;52.206;5.114;2023-02-10T02:39:04;103659.00;;;2.04;78.94
64886;BME280;51514;52.206;5.114;2023-02-10T02:41:31;103655.50;;;2.02;79.54
64886;BME280;51514;52.206;5.114;2023-02-10T02:43:58;103659.03;;;2.02;79.71
64886;BME280;51514;52.206;5.114;2023-02-10T02:49:06;103654.66;;;2.00;79.63
64886;BME280;51514;52.206;5.114;2023-02-10T02:51:42;103650.22;;;2.00;79.80
64886;BME280;51514;52.206;5.114;2023-02-10T02:56:55;103649.34;;;1.98;79.86
64886;BME280;51514;52.206;5.114;2023-02-10T03:00:04;103658.34;;;1.94;80.04
64886;BME280;51514;52.206;5.114;2023-02-10T03:02:32;103649.50;;;1.92;79.47
64886;BME280;51514;52.206;5.114;2023-02-10T03:04:58;103655.78;;;1.90;79.49
64886;BME280;51514;52.206;5.114;2023-02-10T03:07:24;103653.19;;;1.85;79.51
64886;BME280;51514;52.206;5.114;2023-02-10T03:09:50;103648.88;;;1.81;79.74
64886;BME280;51514;52.206;5.114;2023-02-10T03:12:15;103649.78;;;1.80;80.03
64886;BME280;51514;52.206;5.114;2023-02-10T03:14:40;103646.31;;;1.76;80.39
64886;BME280;51514;52.206;5.114;2023-02-10T03:17:06;103646.41;;;1.72;80.55
64886;BME280;51514;52.206;5.114;2023-02-10T03:19:31;103652.66;;;1.71;80.47
64886;BME280;51514;52.206;5.114;2023-02-10T03:21:57;103650.88;;;1.71;80.86
64886;BME280;51514;52.206;5.114;2023-02-10T03:24:22;103649.97;;;1.72;81.05
64886;BME280;51514;52.206;5.114;2023-02-10T03:26:47;103641.97;;;1.72;81.19
64886;BME280;51514;52.206;5.114;2023-02-10T03:29:14;103646.34;;;1.75;81.03
64886;BME280;51514;52.206;5.114;2023-02-10T03:31:40;103652.50;;;1.77;81.22
64886;BME280;51514;52.206;5.114;2023-02-10T03:34:05;103648.97;;;1.76;80.81
64886;BME280;51514;52.206;5.114;2023-02-10T03:36:31;103657.94;;;1.72;80.31
64886;BME280;51514;52.206;5.114;2023-02-10T03:38:59;103662.38;;;1.72;80.17
64886;BME280;51514;52.206;5.114;2023-02-10T03:41:24;103665.09;;;1.69;80.34
64886;BME280;51514;52.206;5.114;2023-02-10T03:43:50;103666.03;;;1.66;79.98
64886;BME280;51514;52.206;5.114;2023-02-10T03:46:15;103669.63;;;1.64;80.38
64886;BME280;51514;52.206;5.114;2023-02-10T03:48:41;103665.28;;;1.60;80.13
64886;BME280;51514;52.206;5.114;2023-02-10T03:51:07;103663.63;;;1.54;80.19
64886;BME280;51514;52.206;5.114;2023-02-10T03:53:32;103664.53;;;1.53;80.62
64886;BME280;51514;52.206;5.114;2023-02-10T03:55:58;103659.22;;;1.53;80.50
64886;BME280;51514;52.206;5.114;2023-02-10T03:58:24;103660.09;;;1.52;80.21
64886;BME280;51514;52.206;5.114;2023-02-10T04:00:49;103653.91;;;1.52;80.57
64886;BME280;51514;52.206;5.114;2023-02-10T04:03:14;103653.06;;;1.51;80.20
64886;BME280;51514;52.206;5.114;2023-02-10T04:05:40;103667.28;;;1.50;80.39
64886;BME280;51514;52.206;5.114;2023-02-10T04:08:05;103659.31;;;1.49;80.17
64886;BME280;51514;52.206;5.114;2023-02-10T04:10:31;103656.66;;;1.49;80.29
64886;BME280;51514;52.206;5.114;2023-02-10T04:12:56;103666.44;;;1.46;79.82
64886;BME280;51514;52.206;5.114;2023-02-10T04:15:22;103670.03;;;1.44;80.06
64886;BME280;51514;52.206;5.114;2023-02-10T04:17:47;103676.25;;;1.43;79.44
64886;BME280;51514;52.206;5.114;2023-02-10T04:20:13;103679.81;;;1.42;79.57
64886;BME280;51514;52.206;5.114;2023-02-10T04:22:38;103674.44;;;1.45;79.99
64886;BME280;51514;52.206;5.114;2023-02-10T04:25:05;103677.03;;;1.50;80.60
64886;BME280;51514;52.206;5.114;2023-02-10T04:27:31;103677.75;;;1.56;80.75
64886;BME280;51514;52.206;5.114;2023-02-10T04:29:56;103684.69;;;1.63;80.79
64886;BME280;51514;52.206;5.114;2023-02-10T04:32:22;103683.75;;;1.67;80.39
64886;BME280;51514;52.206;5.114;2023-02-10T04:34:47;103684.59;;;1.69;80.40
64886;BME280;51514;52.206;5.114;2023-02-10T04:37:13;103683.69;;;1.70;80.04
64886;BME280;51514;52.206;5.114;2023-02-10T04:39:38;103671.31;;;1.68;80.04
64886;BME280;51514;52.206;5.114;2023-02-10T04:42:04;103672.28;;;1.64;79.84
64886;BME280;51514;52.206;5.114;2023-02-10T04:44:29;103663.56;;;1.57;79.78
64886;BME280;51514;52.206;5.114;2023-02-10T04:46:54;103670.75;;;1.52;79.65
64886;BME280;51514;52.206;5.114;2023-02-10T04:49:19;103654.88;;;1.49;79.72
64886;BME280;51514;52.206;5.114;2023-02-10T04:51:45;103656.75;;;1.44;80.07
64886;BME280;51514;52.206;5.114;2023-02-10T04:54:10;103651.53;;;1.39;80.27
64886;BME280;51514;52.206;5.114;2023-02-10T04:56:35;103650.69;;;1.37;79.87
64886;BME280;51514;52.206;5.114;2023-02-10T04:59:01;103656.09;;;1.33;79.96
64886;BME280;51514;52.206;5.114;2023-02-10T05:01:26;103667.59;;;1.33;80.58
64886;BME280;51514;52.206;5.114;2023-02-10T05:03:51;103664.00;;;1.36;81.31
64886;BME280;51514;52.206;5.114;2023-02-10T05:06:17;103666.66;;;1.36;81.28
64886;BME280;51514;52.206;5.114;2023-02-10T05:08:42;103655.13;;;1.37;81.12
64886;BME280;51514;52.206;5.114;2023-02-10T05:11:13;103660.34;;;1.41;81.64
64886;BME280;51514;52.206;5.114;2023-02-10T05:13:39;103664.72;;;1.44;81.68
64886;BME280;51514;52.206;5.114;2023-02-10T05:16:05;103662.06;;;1.44;81.13
64886;BME280;51514;52.206;5.114;2023-02-10T05:18:32;103660.31;;;1.43;81.79
64886;BME280;51514;52.206;5.114;2023-02-10T05:20:58;103664.75;;;1.42;81.78
64886;BME280;51514;52.206;5.114;2023-02-10T05:23:24;103664.72;;;1.44;81.93
64886;BME280;51514;52.206;5.114;2023-02-10T05:25:49;103666.53;;;1.42;81.59
64886;BME280;51514;52.206;5.114;2023-02-10T05:28:14;103665.63;;;1.43;81.64
64886;BME280;51514;52.206;5.114;2023-02-10T05:30:40;103672.69;;;1.44;82.24
64886;BME280;51514;52.206;5.114;2023-02-10T05:33:05;103670.91;;;1.44;82.63
64886;BME280;51514;52.206;5.114;2023-02-10T05:35:30;103662.94;;;1.44;82.53
64886;BME280;51514;52.206;5.114;2023-02-10T05:37:56;103663.88;;;1.42;82.70
64886;BME280;51514;52.206;5.114;2023-02-10T05:40:21;103660.38;;;1.40;82.97
64886;BME280;51514;52.206;5.114;2023-02-10T05:42:47;103657.66;;;1.41;83.18
64886;BME280;51514;52.206;5.114;2023-02-10T05:45:12;103661.25;;;1.40;82.83
64886;BME280;51514;52.206;5.114;2023-02-10T05:47:38;103656.78;;;1.41;83.62
64886;BME280;51514;52.206;5.114;2023-02-10T05:50:03;103656.75;;;1.42;83.29
64886;BME280;51514;52.206;5.114;2023-02-10T05:52:29;103656.78;;;1.41;83.09
64886;BME280;51514;52.206;5.114;2023-02-10T05:54:54;103654.28;;;1.35;83.13
64886;BME280;51514;52.206;5.114;2023-02-10T05:57:19;103649.00;;;1.32;83.00
64886;BME280;51514;52.206;5.114;2023-02-10T05:59:44;103660.53;;;1.31;84.69
64886;BME280;51514;52.206;5.114;2023-02-10T06:02:10;103664.91;;;1.35;84.84
64886;BME280;51514;52.206;5.114;2023-02-10T06:04:35;103666.63;;;1.37;84.57
64886;BME280;51514;52.206;5.114;2023-02-10T06:07:01;103663.03;;;1.40;84.31
64886;BME280;51514;52.206;5.114;2023-02-10T06:09:26;103676.25;;;1.43;83.97
64886;BME280;51514;52.206;5.114;2023-02-10T06:11:52;103674.44;;;1.45;84.02
64886;BME280;51514;52.206;5.114;2023-02-10T06:14:18;103666.47;;;1.45;84.12
64886;BME280;51514;52.206;5.114;2023-02-10T06:16:43;103671.75;;;1.46;84.39
64886;BME280;51514;52.206;5.114;2023-02-10T06:19:09;103670.75;;;1.52;85.00
64886;BME280;51514;52.206;5.114;2023-02-10T06:21:34;103682.19;;;1.57;85.01
64886;BME280;51514;52.206;5.114;2023-02-10T06:24:00;103686.47;;;1.63;85.71
64886;BME280;51514;52.206;5.114;2023-02-10T06:26:25;103682.84;;;1.68;85.56
64886;BME280;51514;52.206;5.114;2023-02-10T06:28:53;103680.13;;;1.71;85.13
64886;BME280;51514;52.206;5.114;2023-02-10T06:31:18;103679.22;;;1.72;85.78
64886;BME280;51514;52.206;5.114;2023-02-10T06:33:43;103677.38;;;1.74;85.10
64886;BME280;51514;52.206;5.114;2023-02-10T06:36:09;103680.03;;;1.74;85.55
64886;BME280;51514;52.206;5.114;2023-02-10T06:38:35;103686.19;;;1.76;85.27
64886;BME280;51514;52.206;5.114;2023-02-10T06:41:01;103685.28;;;1.77;85.34
64886;BME280;51514;52.206;5.114;2023-02-10T06:43:27;103685.31;;;1.76;86.25
64886;BME280;51514;52.206;5.114;2023-02-10T06:45:52;103685.34;;;1.74;85.82
64886;BME280;51514;52.206;5.114;2023-02-10T06:48:17;103685.31;;;1.76;86.33
64886;BME280;51514;52.206;5.114;2023-02-10T06:50:43;103691.47;;;1.79;86.27
64886;BME280;51514;52.206;5.114;2023-02-10T06:53:08;103689.66;;;1.81;86.48
64886;BME280;51514;52.206;5.114;2023-02-10T06:55:33;103686.91;;;1.84;86.67
64886;BME280;51514;52.206;5.114;2023-02-10T06:58:00;103687.84;;;1.83;87.08
64886;BME280;51514;52.206;5.114;2023-02-10T07:00:26;103684.25;;;1.84;86.76
64886;BME280;51514;52.206;5.114;2023-02-10T07:02:52;103687.03;;;1.80;87.76
64886;BME280;51514;52.206;5.114;2023-02-10T07:05:17;103694.16;;;1.78;87.25
64886;BME280;51514;52.206;5.114;2023-02-10T07:07:43;103694.22;;;1.75;86.65
64886;BME280;51514;52.206;5.114;2023-02-10T07:10:08;103691.66;;;1.70;87.00
64886;BME280;51514;52.206;5.114;2023-02-10T07:12:34;103693.41;;;1.71;87.31
64886;BME280;51514;52.206;5.114;2023-02-10T07:15:00;103689.72;;;1.77;87.74
64886;BME280;51514;52.206;5.114;2023-02-10T07:17:25;103699.41;;;1.81;87.42
64886;BME280;51514;52.206;5.114;2023-02-10T07:19:51;103704.75;;;1.81;87.80
64886;BME280;51514;52.206;5.114;2023-02-10T07:22:16;103711.81;;;1.82;88.15
64886;BME280;51514;52.206;5.114;2023-02-10T07:24:41;103713.56;;;1.83;88.38
64886;BME280;51514;52.206;5.114;2023-02-10T07:27:07;103715.28;;;1.84;88.63
64886;BME280;51514;52.206;5.114;2023-02-10T07:29:32;103717.88;;;1.87;88.16
64886;BME280;51514;52.206;5.114;2023-02-10T07:31:58;103723.97;;;1.94;88.86
64886;BME280;51514;52.206;5.114;2023-02-10T07:34:24;103731.81;;;2.00;88.85
64886;BME280;51514;52.206;5.114;2023-02-10T07:36:50;103722.78;;;2.07;88.82
64886;BME280;51514;52.206;5.114;2023-02-10T07:39:21;103731.50;;;2.15;88.86
64886;BME280;51514;52.206;5.114;2023-02-10T07:41:47;103742.88;;;2.22;88.72
64886;BME280;51514;52.206;5.114;2023-02-10T07:44:13;103749.00;;;2.25;88.41
64886;BME280;51514;52.206;5.114;2023-02-10T07:46:38;103746.16;;;2.33;88.58
64886;BME280;51514;52.206;5.114;2023-02-10T07:49:03;103725.66;;;2.38;88.60
64886;BME280;51514;52.206;5.114;2023-02-10T07:51:29;103726.50;;;2.38;87.89
64886;BME280;51514;52.206;5.114;2023-02-10T07:53:54;103721.25;;;2.37;88.02
64886;BME280;51514;52.206;5.114;2023-02-10T07:56:19;103723.97;;;2.34;88.04
64886;BME280;51514;52.206;5.114;2023-02-10T07:58:45;103736.34;;;2.36;88.01
64886;BME280;51514;52.206;5.114;2023-02-10T08:01:10;103735.44;;;2.37;88.34
64886;BME280;51514;52.206;5.114;2023-02-10T08:03:36;103734.56;;;2.37;88.35
64886;BME280;51514;52.206;5.114;2023-02-10T08:06:02;103730.03;;;2.39;88.61
64886;BME280;51514;52.206;5.114;2023-02-10T08:08:29;103727.25;;;2.45;88.52
64886;BME280;51514;52.206;5.114;2023-02-10T08:10:54;103740.44;;;2.49;88.65
64886;BME280;51514;52.206;5.114;2023-02-10T08:13:20;103745.66;;;2.55;88.78
64886;BME280;51514;52.206;5.114;2023-02-10T08:15:46;103741.16;;;2.58;88.35
64886;BME280;51514;52.206;5.114;2023-02-10T08:18:11;103745.41;;;2.65;88.41
64886;BME280;51514;52.206;5.114;2023-02-10T08:20:36;103739.88;;;2.74;87.46
64886;BME280;51514;52.206;5.114;2023-02-10T08:23:02;103740.47;;;2.85;87.65
64886;BME280;51514;52.206;5.114;2023-02-10T08:25:27;103736.66;;;2.95;87.94
64886;BME280;51514;52.206;5.114;2023-02-10T08:27:53;103740.84;;;3.05;88.32
64886;BME280;51514;52.206;5.114;2023-02-10T08:30:19;103727.28;;;3.14;88.11
64886;BME280;51514;52.206;5.114;2023-02-10T08:32:44;103733.91;;;3.34;87.51
64886;BME280;51514;52.206;5.114;2023-02-10T08:35:10;103741.59;;;3.44;87.19
64886;BME280;51514;52.206;5.114;2023-02-10T08:37:35;103730.53;;;3.58;86.89
64886;BME280;51514;52.206;5.114;2023-02-10T08:40:01;103732.03;;;3.68;86.80
64886;BME280;51514;52.206;5.114;2023-02-10T08:42:29;103731.78;;;3.77;87.05
64886;BME280;51514;52.206;5.114;2023-02-10T08:44:54;103718.09;;;3.89;86.12
64886;BME280;51514;52.206;5.114;2023-02-10T08:47:20;103728.53;;;3.97;86.95
64886;BME280;51514;52.206;5.114;2023-02-10T08:49:45;103729.25;;;4.02;86.10
64886;BME280;51514;52.206;5.114;2023-02-10T08:52:10;103728.97;;;4.11;86.68
64886;BME280;51514;52.206;5.114;2023-02-10T08:54:36;103733.19;;;4.20;85.90
64886;BME280;51514;52.206;5.114;2023-02-10T08:57:01;103747.28;;;4.23;85.51
64886;BME280;51514;52.206;5.114;2023-02-10T08:59:27;103746.19;;;4.30;86.13
64886;BME280;51514;52.206;5.114;2023-02-10T09:01:52;103752.97;;;4.42;86.21
64886;BME280;51514;52.206;5.114;2023-02-10T09:04:18;103747.47;;;4.47;85.87
64886;BME280;51514;52.206;5.114;2023-02-10T09:06:43;103749.91;;;4.54;86.23
64886;BME280;51514;52.206;5.114;2023-02-10T09:09:11;103753.00;;;4.68;85.90
64886;BME280;51514;52.206;5.114;2023-02-10T09:11:37;103757.94;;;4.81;85.55
64886;BME280;51514;52.206;5.114;2023-02-10T09:14:03;103754.72;;;4.97;84.78
64886;BME280;51514;52.206;5.114;2023-02-10T09:16:28;103762.53;;;5.03;84.50
64886;BME280;51514;52.206;5.114;2023-02-10T09:18:54;103758.53;;;5.17;84.44
64886;BME280;51514;52.206;5.114;2023-02-10T09:21:19;103767.09;;;5.26;83.77
64886;BME280;51514;52.206;5.114;2023-02-10T09:23:45;103754.56;;;5.28;83.56
64886;BME280;51514;52.206;5.114;2023-02-10T09:26:10;103758.53;;;5.41;83.88
64886;BME280;51514;52.206;5.114;2023-02-10T09:28:35;103761.78;;;5.51;83.44
64886;BME280;51514;52.206;5.114;2023-02-10T09:31:03;103747.13;;;5.61;83.15
64886;BME280;51514;52.206;5.114;2023-02-10T09:33:29;103761.88;;;5.73;82.67
64886;BME280;51514;52.206;5.114;2023-02-10T09:35:54;103755.31;;;5.81;82.07
64886;BME280;51514;52.206;5.114;2023-02-10T09:38:19;103760.63;;;5.83;81.50
64886;BME280;51514;52.206;5.114;2023-02-10T09:53:54;103751.19;;;6.19;81.10
64886;BME280;51514;52.206;5.114;2023-02-10T09:56:21;103736.66;;;6.27;80.84
64886;BME280;51514;52.206;5.114;2023-02-10T09:58:53;103747.22;;;6.30;80.75
64886;BME280;51514;52.206;5.114;2023-02-10T10:01:39;103746.13;;;6.35;81.17
64886;BME280;51514;52.206;5.114;2023-02-10T10:04:13;103749.53;;;6.39;80.33
64886;BME280;51514;52.206;5.114;2023-02-10T10:06:40;103744.41;;;6.56;80.37
64886;BME280;51514;52.206;5.114;2023-02-10T10:11:48;103754.38;;;6.74;80.10
64886;BME280;51514;52.206;5.114;2023-02-10T10:19:55;103738.47;;;6.91;78.35
64886;BME280;51514;52.206;5.114;2023-02-10T10:31:13;103732.34;;;7.30;77.77
64886;BME280;51514;52.206;5.114;2023-02-10T10:33:50;103733.47;;;7.45;77.90
64886;BME280;51514;52.206;5.114;2023-02-10T10:36:19;103730.34;;;7.35;76.88
64886;BME280;51514;52.206;5.114;2023-02-10T10:38:50;103733.84;;;7.36;76.39
64886;BME280;51514;52.206;5.114;2023-02-10T10:41:16;103740.72;;;7.43;77.19
64886;BME280;51514;52.206;5.114;2023-02-10T10:43:52;103738.63;;;7.49;76.34
64886;BME280;51514;52.206;5.114;2023-02-10T10:49:24;103742.66;;;7.59;76.52
64886;BME280;51514;52.206;5.114;2023-02-10T10:51:49;103738.09;;;7.61;75.94
64886;BME280;51514;52.206;5.114;2023-02-10T10:54:17;103739.97;;;7.59;74.05
64886;BME280;51514;52.206;5.114;2023-02-10T10:56:53;103734.53;;;7.61;74.79
64886;BME280;51514;52.206;5.114;2023-02-10T10:59:25;103732.09;;;7.75;75.30
64886;BME280;51514;52.206;5.114;2023-02-10T11:01:53;103727.31;;;7.82;74.90
64886;BME280;51514;52.206;5.114;2023-02-10T11:04:24;103732.19;;;7.92;74.09
64886;BME280;51514;52.206;5.114;2023-02-10T11:06:52;103721.44;;;7.92;72.88
64886;BME280;51514;52.206;5.114;2023-02-10T11:09:32;103720.13;;;8.01;73.41
64886;BME280;51514;52.206;5.114;2023-02-10T11:12:27;103719.63;;;8.12;73.50
64886;BME280;51514;52.206;5.114;2023-02-10T11:14:53;103726.84;;;8.11;72.39
64886;BME280;51514;52.206;5.114;2023-02-10T11:17:40;103733.94;;;8.12;71.83
64886;BME280;51514;52.206;5.114;2023-02-10T11:22:37;103719.78;;;8.27;72.60
64886;BME280;51514;52.206;5.114;2023-02-10T11:25:24;103716.44;;;8.22;70.68
64886;BME280;51514;52.206;5.114;2023-02-10T11:27:51;103706.06;;;8.33;72.25
64886;BME280;51514;52.206;5.114;2023-02-10T11:30:34;103699.47;;;8.40;71.27
64886;BME280;51514;52.206;5.114;2023-02-10T11:33:01;103704.91;;;8.39;70.79
64886;BME280;51514;52.206;5.114;2023-02-10T11:35:28;103696.78;;;8.40;71.13
64886;BME280;51514;52.206;5.114;2023-02-10T11:38:02;103695.78;;;8.43;71.08
64886;BME280;51514;52.206;5.114;2023-02-10T11:40:31;103700.75;;;8.51;71.11
64886;BME280;51514;52.206;5.114;2023-02-10T11:43:13;103694.09;;;8.40;70.42
64886;BME280;51514;52.206;5.114;2023-02-10T11:45:39;103703.53;;;8.49;71.10
64886;BME280;51514;52.206;5.114;2023-02-10T11:48:19;103699.00;;;8.50;70.97
64886;BME280;51514;52.206;5.114;2023-02-10T11:50:45;103694.25;;;8.55;70.46
64886;BME280;51514;52.206;5.114;2023-02-10T11:53:28;103690.50;;;8.59;70.23
64886;BME280;51514;52.206;5.114;2023-02-10T11:56:12;103685.38;;;8.71;69.96
64886;BME280;51514;52.206;5.114;2023-02-10T11:59:45;103674.94;;;8.83;69.30
64886;BME280;51514;52.206;5.114;2023-02-10T12:04:32;103682.69;;;8.89;70.36
64886;BME280;51514;52.206;5.114;2023-02-10T12:07:12;103681.53;;;8.94;69.54
64886;BME280;51514;52.206;5.114;2023-02-10T12:09:48;103700.28;;;8.96;68.96
64886;BME280;51514;52.206;5.114;2023-02-10T12:15:15;103688.03;;;9.07;69.32
64886;BME280;51514;52.206;5.114;2023-02-10T12:23:43;103693.59;;;9.20;69.32
64886;BME280;51514;52.206;5.114;2023-02-10T12:26:23;103701.78;;;9.19;67.82
64886;BME280;51514;52.206;5.114;2023-02-10T12:37:38;103674.16;;;9.15;68.55
64886;BME280;51514;52.206;5.114;2023-02-10T12:40:40;103678.50;;;9.18;68.79
64886;BME280;51514;52.206;5.114;2023-02-10T12:43:11;103678.91;;;9.27;68.87
64886;BME280;51514;52.206;5.114;2023-02-10T12:45:50;103674.53;;;9.25;68.31
64886;BME280;51514;52.206;5.114;2023-02-10T12:53:26;103662.75;;;8.93;69.20
64886;BME280;51514;52.206;5.114;2023-02-10T12:56:05;103658.41;;;8.90;69.78
64886;BME280;51514;52.206;5.114;2023-02-10T12:58:58;103657.28;;;8.77;70.10
64886;BME280;51514;52.206;5.114;2023-02-10T13:01:34;103659.63;;;8.66;70.87
64886;BME280;51514;52.206;5.114;2023-02-10T13:04:22;103660.69;;;8.63;70.92
64886;BME280;51514;52.206;5.114;2023-02-10T13:06:57;103643.97;;;8.57;71.12
64886;BME280;51514;52.206;5.114;2023-02-10T13:09:39;103634.75;;;8.62;71.68
64886;BME280;51514;52.206;5.114;2023-02-10T13:12:27;103634.19;;;8.73;71.60
64886;BME280;51514;52.206;5.114;2023-02-10T13:17:49;103609.00;;;8.91;69.39
64886;BME280;51514;52.206;5.114;2023-02-10T13:23:37;103600.47;;;8.83;69.04
64886;BME280;51514;52.206;5.114;2023-02-10T13:26:41;103595.09;;;8.83;68.54
64886;BME280;51514;52.206;5.114;2023-02-10T13:29:16;103589.78;;;8.82;69.43
64886;BME280;51514;52.206;5.114;2023-02-10T13:34:59;103590.34;;;8.88;69.15
64886;BME280;51514;52.206;5.114;2023-02-10T13:37:40;103600.47;;;8.83;68.08
64886;BME280;51514;52.206;5.114;2023-02-10T13:42:56;103592.56;;;8.80;68.59
64886;BME280;51514;52.206;5.114;2023-02-10T13:45:28;103582.75;;;8.79;68.67
64886;BME280;51514;52.206;5.114;2023-02-10T13:48:06;103583.53;;;8.81;68.66
64886;BME280;51514;52.206;5.114;2023-02-10T13:50:51;103581.50;;;8.86;69.63
64886;BME280;51514;52.206;5.114;2023-02-10T13:58:34;103579.56;;;8.88;69.65
64886;BME280;51514;52.206;5.114;2023-02-10T14:01:00;103581.16;;;8.92;70.49
64886;BME280;51514;52.206;5.114;2023-02-10T14:03:31;103581.16;;;8.92;70.29
64886;BME280;51514;52.206;5.114;2023-02-10T14:06:04;103586.31;;;8.79;71.20
64886;BME280;51514;52.206;5.114;2023-02-10T14:13:32;103559.97;;;8.86;72.06
64886;BME280;51514;52.206;5.114;2023-02-10T14:16:45;103555.47;;;8.87;72.60
64886;BME280;51514;52.206;5.114;2023-02-10T14:18:45;103547.13;;;8.91;72.67
64886;BME280;51514;52.206;5.114;2023-02-10T14:21:21;103549.03;;;8.89;72.79
64886;BME280;51514;52.206;5.114;2023-02-10T14:23:53;103529.50;;;8.86;73.51
64886;BME280;51514;52.206;5.114;2023-02-10T14:26:21;103526.63;;;8.89;73.82
64886;BME280;51514;52.206;5.114;2023-02-10T14:28:50;103541.44;;;8.80;74.02
64886;BME280;51514;52.206;5.114;2023-02-10T14:31:24;103550.47;;;8.79;74.13
64886;BME280;51514;52.206;5.114;2023-02-10T14:33:56;103558.72;;;8.76;74.86
64886;BME280;51514;52.206;5.114;2023-02-10T14:36:22;103557.66;;;8.78;75.08
64886;BME280;51514;52.206;5.114;2023-02-10T14:38:53;103550.94;;;8.70;75.20
64886;BME280;51514;52.206;5.114;2023-02-10T14:41:20;103553.66;;;8.70;76.33
64886;BME280;51514;52.206;5.114;2023-02-10T14:43:47;103550.16;;;8.68;75.92
64886;BME280;51514;52.206;5.114;2023-02-10T14:46:29;103555.88;;;8.62;76.40
64886;BME280;51514;52.206;5.114;2023-02-10T14:49:08;103543.38;;;8.61;76.36
64886;BME280;51514;52.206;5.114;2023-02-10T14:51:39;103537.47;;;8.54;76.14
64886;BME280;51514;52.206;5.114;2023-02-10T14:54:25;103547.03;;;8.43;76.70
64886;BME280;51514;52.206;5.114;2023-02-10T14:57:01;103545.56;;;8.35;76.77